Time;durP1;ratioP1;P1;durP2;ratioP2;P2;SDS_P1;SDS_P2;PMS_P1;PMS_P2;Temp;Humidity;BMP_temperature;BMP_pressure;BME280_temperature;BME280_humidity;BME280_pressure;Samples;Min_cycle;Max_cycle;Signal;HPM_P1;HPM_P2
2023/06/30 00:01:48;;;;;;;17.80;9.27;;;;;;;20.61;61.45;96253.38;10340183;28;20066;-31
2023/06/30 00:06:50;;;;;;;10.18;7.65;;;;;;;20.57;61.85;96251.72;10331451;28;20070;-31
2023/06/30 00:11:54;;;;;;;14.07;8.40;;;;;;;20.56;62.00;96249.22;10341349;28;20190;-30
2023/06/30 00:16:56;;;;;;;10.38;8.18;;;;;;;20.59;61.62;96244.94;10331007;28;20490;-31
2023/06/30 00:21:56;;;;;;;11.05;8.73;;;;;;;20.59;61.61;96250.03;10331093;28;20100;-31
2023/06/30 00:26:57;;;;;;;12.17;8.70;;;;;;;20.53;62.07;96265.38;10337937;28;20087;-30
2023/06/30 00:31:57;;;;;;;12.40;8.93;;;;;;;20.59;62.30;96266.97;10329680;28;20041;-31
2023/06/30 00:36:57;;;;;;;16.87;9.57;;;;;;;20.57;63.08;96274.63;10339518;28;20040;-30
2023/06/30 00:41:59;;;;;;;14.25;9.02;;;;;;;20.49;63.52;96268.84;10321416;28;20038;-30
2023/06/30 00:47:00;;;;;;;13.05;9.82;;;;;;;20.64;62.88;96281.28;10329322;28;20041;-31
2023/06/30 00:52:01;;;;;;;13.82;10.05;;;;;;;20.47;63.54;96280.72;10330039;28;20037;-30
2023/06/30 00:57:06;;;;;;;16.00;9.80;;;;;;;20.45;63.61;96272.25;10340043;28;20045;-30
2023/06/30 01:02:14;;;;;;;12.20;8.82;;;;;;;20.45;63.89;96274.81;10329422;28;20033;-30
2023/06/30 01:07:21;;;;;;;12.70;9.77;;;;;;;20.49;63.98;96279.00;10334510;28;20046;-30
2023/06/30 01:12:22;;;;;;;13.00;9.45;;;;;;;20.47;65.28;96272.25;10329047;28;20038;-31
2023/06/30 01:17:24;;;;;;;13.27;9.57;;;;;;;20.40;67.83;96266.41;10336169;28;20492;-31
2023/06/30 01:22:46;;;;;;;14.23;9.68;;;;;;;20.35;69.00;96269.88;10330160;28;20406;-31
2023/06/30 01:27:49;;;;;;;13.45;9.50;;;;;;;20.32;69.94;96262.31;10326975;28;20026;-31
2023/06/30 01:32:54;;;;;;;15.02;9.65;;;;;;;20.33;70.49;96248.72;10326058;28;20026;-31
2023/06/30 01:37:55;;;;;;;13.50;9.60;;;;;;;20.37;70.92;96244.44;10327375;28;20062;-31
2023/06/30 01:42:57;;;;;;;12.02;9.10;;;;;;;20.23;70.73;96243.78;10325796;28;20458;-30
2023/06/30 01:47:58;;;;;;;17.13;10.10;;;;;;;20.17;70.72;96238.81;10341858;28;20037;-30
2023/06/30 01:52:59;;;;;;;13.43;8.63;;;;;;;20.14;70.75;96228.66;10326351;28;20030;-30
2023/06/30 01:57:59;;;;;;;14.75;9.05;;;;;;;20.10;70.66;96234.66;10338590;28;20042;-30
2023/06/30 02:03:00;;;;;;;16.53;10.00;;;;;;;20.06;71.42;96233.03;10326152;28;20069;-31
2023/06/30 02:08:00;;;;;;;13.10;8.67;;;;;;;20.10;70.74;96232.97;10332126;28;20030;-30
2023/06/30 02:13:01;;;;;;;16.33;9.53;;;;;;;20.09;71.68;96241.44;10338207;28;20034;-30
2023/06/30 02:18:02;;;;;;;14.63;9.97;;;;;;;20.07;72.27;96234.69;10325237;28;20414;-30
2023/06/30 02:23:03;;;;;;;14.10;9.48;;;;;;;20.06;72.22;96231.34;10342125;28;20030;-30
2023/06/30 02:28:03;;;;;;;13.77;9.73;;;;;;;20.01;72.96;96227.97;10345491;28;20314;-30
2023/06/30 02:33:05;;;;;;;15.60;10.32;;;;;;;20.02;72.44;96221.19;10327441;28;20475;-31
2023/06/30 02:38:08;;;;;;;15.50;9.30;;;;;;;20.08;72.52;96218.63;10347448;28;20088;-30
2023/06/30 02:43:08;;;;;;;13.38;9.73;;;;;;;20.05;72.22;96213.56;10324968;28;20502;-31
2023/06/30 02:48:11;;;;;;;14.33;10.17;;;;;;;20.12;71.62;96210.06;10329165;28;20030;-30
2023/06/30 02:53:12;;;;;;;16.30;9.95;;;;;;;20.05;72.10;96203.38;10345228;28;20405;-30
2023/06/30 02:58:13;;;;;;;13.30;9.57;;;;;;;20.06;72.02;96194.91;10340309;28;20315;-30
2023/06/30 03:03:13;;;;;;;13.60;9.32;;;;;;;20.03;72.04;96197.47;10324526;28;20686;-30
2023/06/30 03:08:15;;;;;;;13.85;9.82;;;;;;;20.02;72.41;96195.78;10332542;28;20121;-30
2023/06/30 03:13:21;;;;;;;14.07;8.75;;;;;;;20.01;72.32;96197.47;10331051;28;20057;-30
2023/06/30 03:18:22;;;;;;;13.23;9.25;;;;;;;20.08;71.57;96198.28;10318164;28;20756;-30
2023/06/30 03:23:22;;;;;;;14.50;9.40;;;;;;;20.00;72.31;96200.06;10339835;28;20035;-30
2023/06/30 03:28:23;;;;;;;14.65;9.93;;;;;;;20.02;72.28;96208.50;10340582;28;20289;-31
2023/06/30 03:33:24;;;;;;;16.00;10.05;;;;;;;20.06;72.59;96215.22;10337909;28;20026;-30
2023/06/30 03:38:26;;;;;;;11.18;9.70;;;;;;;19.86;73.25;96222.25;10333256;28;20030;-30
2023/06/30 03:43:26;;;;;;;13.57;10.10;;;;;;;19.82;72.68;96235.84;10353715;28;20040;-30
2023/06/30 03:48:27;;;;;;;13.68;9.77;;;;;;;19.74;73.89;96242.72;10353107;28;20289;-30
2023/06/30 03:53:27;;;;;;;14.00;11.30;;;;;;;19.92;73.66;96247.59;10324995;28;20509;-30
2023/06/30 03:58:28;;;;;;;13.73;9.77;;;;;;;20.13;71.77;96249.88;10346690;28;20502;-31
2023/06/30 04:03:28;;;;;;;14.00;10.52;;;;;;;20.15;72.30;96256.63;10339675;28;20038;-30
2023/06/30 04:08:31;;;;;;;15.67;9.77;;;;;;;20.51;71.05;96262.00;10339757;28;20042;-30
2023/06/30 04:13:31;;;;;;;13.75;9.60;;;;;;;20.87;69.02;96269.09;10340558;28;20053;-32
2023/06/30 04:18:32;;;;;;;14.97;10.40;;;;;;;20.64;69.56;96278.75;10333921;28;20076;-33
2023/06/30 04:23:33;;;;;;;13.23;10.20;;;;;;;20.30;71.24;96291.16;10376057;28;20047;-31
2023/06/30 04:28:33;;;;;;;12.77;9.63;;;;;;;20.16;73.50;96285.41;10354612;28;20034;-31
2023/06/30 04:33:34;;;;;;;18.87;11.83;;;;;;;19.95;74.24;96290.75;10342564;28;20528;-31
2023/06/30 04:38:34;;;;;;;17.60;11.43;;;;;;;19.89;74.84;96298.44;10350980;28;20052;-30
2023/06/30 04:43:35;;;;;;;13.85;10.20;;;;;;;19.93;75.11;96300.91;10378396;28;20397;-30
2023/06/30 04:48:37;;;;;;;17.17;9.63;;;;;;;19.87;75.50;96295.94;10343147;28;20561;-30
2023/06/30 04:53:40;;;;;;;16.05;11.13;;;;;;;19.85;76.15;96302.72;10357120;28;20049;-29
2023/06/30 04:58:40;;;;;;;19.48;11.95;;;;;;;19.82;76.37;96309.53;10353210;28;20058;-31
2023/06/30 05:03:41;;;;;;;17.70;11.17;;;;;;;19.80;76.66;96304.47;10346341;28;20530;-30
2023/06/30 05:08:41;;;;;;;14.47;10.67;;;;;;;19.79;76.41;96297.72;10344834;28;20030;-31
2023/06/30 05:13:41;;;;;;;16.70;10.77;;;;;;;19.80;76.56;96303.63;10355586;28;20029;-30
2023/06/30 05:18:42;;;;;;;16.37;11.43;;;;;;;19.80;76.56;96303.63;10349348;28;20121;-30
2023/06/30 05:23:42;;;;;;;19.30;10.97;;;;;;;19.84;76.44;96307.81;10343785;28;20033;-31
2023/06/30 05:28:42;;;;;;;14.60;11.52;;;;;;;19.88;76.50;96319.63;10369092;28;20034;-31
2023/06/30 05:33:43;;;;;;;17.83;11.43;;;;;;;19.90;76.26;96315.34;10355664;28;20026;-31
2023/06/30 05:38:43;;;;;;;19.17;11.93;;;;;;;19.87;76.32;96316.25;10341280;28;20042;-31
2023/06/30 05:43:44;;;;;;;15.90;10.87;;;;;;;19.94;75.72;96312.75;10356332;28;20563;-30
2023/06/30 05:48:44;;;;;;;14.93;11.10;;;;;;;19.88;76.23;96317.94;10352341;28;20034;-30
2023/06/30 05:53:44;;;;;;;18.20;11.67;;;;;;;19.84;76.63;96334.06;10348900;28;20042;-30
2023/06/30 05:58:45;;;;;;;15.43;11.60;;;;;;;19.83;76.38;96318.84;10336378;28;20123;-30
2023/06/30 06:03:45;;;;;;;18.60;12.40;;;;;;;19.81;76.66;96333.25;10339865;28;20490;-30
2023/06/30 06:08:49;;;;;;;17.60;11.60;;;;;;;19.81;77.50;96346.81;10348005;28;20372;-30
2023/06/30 06:13:49;;;;;;;21.63;12.60;;;;;;;19.81;77.68;96351.88;10351745;28;20462;-31
2023/06/30 06:18:50;;;;;;;14.97;11.40;;;;;;;19.82;77.49;96358.63;10343432;28;20041;-30
2023/06/30 06:23:50;;;;;;;15.90;11.30;;;;;;;19.77;77.43;96368.00;10343419;28;20660;-30
2023/06/30 06:28:51;;;;;;;16.07;11.20;;;;;;;19.78;77.58;96371.38;10354030;28;20033;-30
2023/06/30 06:33:51;;;;;;;13.60;9.85;;;;;;;19.85;76.55;96375.56;10346949;28;20038;-30
2023/06/30 06:38:51;;;;;;;15.50;11.70;;;;;;;19.80;76.54;96379.84;10362600;28;20595;-30
2023/06/30 06:43:52;;;;;;;14.77;10.60;;;;;;;19.70;77.06;96380.78;10338502;28;20026;-30
2023/06/30 06:48:54;;;;;;;14.07;9.30;;;;;;;19.64;76.92;96389.31;10344422;28;20149;-30
2023/06/30 06:53:55;;;;;;;12.52;9.18;;;;;;;19.53;75.94;96405.50;10333681;28;20084;-30
2023/06/30 06:58:55;;;;;;;15.50;10.80;;;;;;;19.50;76.06;96403.00;10366701;28;20072;-30
2023/06/30 07:03:55;;;;;;;15.80;11.43;;;;;;;19.53;75.67;96402.97;10337677;28;20042;-30
2023/06/30 07:08:56;;;;;;;18.17;11.50;;;;;;;19.58;75.26;96403.78;10341916;28;20034;-31
2023/06/30 07:13:56;;;;;;;15.70;11.13;;;;;;;19.54;76.14;96413.13;10341021;28;20045;-30
2023/06/30 07:18:56;;;;;;;14.70;10.90;;;;;;;19.54;75.54;96402.09;10346802;28;20042;-31
2023/06/30 07:23:57;;;;;;;16.60;11.97;;;;;;;19.61;75.46;96398.66;10349505;28;20034;-31
2023/06/30 07:28:57;;;;;;;15.17;11.17;;;;;;;19.57;75.90;96404.59;10355013;28;20049;-30
2023/06/30 07:33:57;;;;;;;19.00;11.70;;;;;;;19.56;76.31;96400.38;10355544;28;20064;-30
2023/06/30 07:38:58;;;;;;;15.33;10.83;;;;;;;19.56;76.74;96397.84;10355115;28;20796;-30
2023/06/30 07:43:59;;;;;;;16.65;11.80;;;;;;;19.53;77.00;96380.13;10365778;28;20046;-30
2023/06/30 07:48:59;;;;;;;19.65;12.20;;;;;;;19.50;77.31;96370.00;10351687;28;20410;-30
2023/06/30 07:53:59;;;;;;;17.00;11.80;;;;;;;19.53;76.87;96364.88;10353975;28;20492;-31
2023/06/30 07:59:00;;;;;;;16.92;12.15;;;;;;;19.57;76.68;96356.34;10343673;28;20030;-30
2023/06/30 08:04:00;;;;;;;16.10;10.80;;;;;;;19.62;77.22;96341.94;10352507;28;20036;-30
2023/06/30 08:09:00;;;;;;;16.03;10.90;;;;;;;19.62;77.51;96335.16;10364255;28;20053;-30
2023/06/30 08:14:02;;;;;;;18.07;12.73;;;;;;;19.68;77.09;96319.84;10342837;28;20026;-31
2023/06/30 08:19:02;;;;;;;13.88;10.00;;;;;;;19.76;77.25;96314.69;10339657;28;20068;-30
2023/06/30 08:24:03;;;;;;;12.60;9.40;;;;;;;19.78;77.63;96323.13;10367787;28;20042;-30
2023/06/30 08:29:03;;;;;;;12.38;9.70;;;;;;;19.82;76.85;96322.22;10339008;28;20375;-31
2023/06/30 08:34:04;;;;;;;12.20;9.50;;;;;;;19.82;76.32;96332.38;10355979;28;20112;-30
2023/06/30 08:39:04;;;;;;;11.20;8.43;;;;;;;19.82;74.83;96327.31;10333319;28;20414;-30
2023/06/30 08:44:05;;;;;;;9.73;7.37;;;;;;;19.86;74.49;96328.97;10336223;28;20041;-31
2023/06/30 08:49:06;;;;;;;11.32;8.27;;;;;;;19.99;76.93;96338.97;10340701;28;20301;-30
2023/06/30 08:54:08;;;;;;;14.45;9.88;;;;;;;19.88;76.94;96337.41;10344096;28;20030;-30
2023/06/30 08:59:09;;;;;;;14.02;9.75;;;;;;;19.88;76.30;96360.25;10368323;28;20465;-30
2023/06/30 09:04:10;;;;;;;15.37;9.77;;;;;;;19.89;76.93;96365.34;10355038;28;20034;-30
2023/06/30 09:09:13;;;;;;;13.57;9.85;;;;;;;19.89;77.04;96372.09;10339468;28;20721;-30
2023/06/30 09:14:14;;;;;;;11.90;8.73;;;;;;;19.93;77.09;96386.47;10354518;28;20033;-31
2023/06/30 09:19:15;;;;;;;12.18;9.38;;;;;;;19.96;76.69;96381.34;10336034;28;20042;-30
2023/06/30 09:24:15;;;;;;;16.38;10.32;;;;;;;19.99;77.49;96387.25;10345861;28;20038;-30
2023/06/30 09:29:22;;;;;;;14.80;11.47;;;;;;;20.09;77.39;96382.94;10336761;28;20045;-30
2023/06/30 09:34:23;;;;;;;15.73;10.98;;;;;;;20.09;77.53;96373.59;10334207;28;20055;-30
2023/06/30 09:39:24;;;;;;;15.65;11.68;;;;;;;20.07;76.52;96384.63;10353093;28;20039;-30
2023/06/30 09:44:24;;;;;;;16.63;11.93;;;;;;;20.18;76.79;96372.66;10344318;28;20037;-30
2023/06/30 09:49:30;;;;;;;15.50;11.33;;;;;;;20.08;76.48;96366.00;10359273;28;20297;-31
2023/06/30 09:54:31;;;;;;;18.08;12.32;;;;;;;20.19;75.95;96365.00;10345421;28;20057;-30
2023/06/30 09:59:32;;;;;;;17.00;11.82;;;;;;;20.22;74.86;96367.53;10342826;28;20104;-30
2023/06/30 10:04:33;;;;;;;16.88;11.75;;;;;;;20.23;73.33;96373.44;10342574;28;20335;-31
2023/06/30 10:09:35;;;;;;;15.48;11.50;;;;;;;20.17;73.67;96355.72;10335626;28;20460;-30
2023/06/30 10:14:37;;;;;;;17.90;12.98;;;;;;;20.16;72.85;96359.09;10343800;28;20108;-30
2023/06/30 10:19:41;;;;;;;17.67;12.70;;;;;;;20.18;72.49;96353.16;10352837;28;20041;-30
2023/06/30 10:24:43;;;;;;;18.52;14.07;;;;;;;20.17;73.52;96353.19;10333147;28;20121;-30
2023/06/30 10:29:45;;;;;;;20.08;13.73;;;;;;;20.11;73.25;96355.78;10345043;28;20037;-30
2023/06/30 10:34:50;;;;;;;18.13;13.07;;;;;;;20.15;72.87;96354.88;10343405;28;20499;-30
2023/06/30 10:39:50;;;;;;;18.20;12.90;;;;;;;20.19;73.05;96354.84;10348297;28;20053;-31
2023/06/30 10:44:51;;;;;;;17.80;12.63;;;;;;;20.23;73.59;96355.63;10346553;28;20053;-31
2023/06/30 10:49:53;;;;;;;16.77;12.23;;;;;;;20.29;73.89;96355.56;10350964;28;20040;-30
2023/06/30 10:54:54;;;;;;;18.98;12.90;;;;;;;20.40;74.94;96359.66;10341363;28;20509;-30
2023/06/30 11:00:10;;;;;;;16.92;12.88;;;;;;;20.40;74.71;96355.38;10344387;28;20030;-30
2023/06/30 11:05:28;;;;;;;18.77;13.93;;;;;;;20.40;73.86;96374.91;10349122;28;20124;-30
2023/06/30 11:10:32;;;;;;;18.95;13.57;;;;;;;20.38;72.65;96372.38;10351821;28;20061;-30
2023/06/30 11:15:40;;;;;;;18.73;12.75;;;;;;;20.80;71.56;96366.69;10350103;28;20030;-31
2023/06/30 11:21:00;;;;;;;19.70;13.98;;;;;;;20.78;71.35;96373.53;10356676;28;20042;-30
2023/06/30 11:26:14;;;;;;;17.13;13.15;;;;;;;20.50;71.34;96379.88;10369059;28;20042;-30
2023/06/30 11:31:15;;;;;;;24.50;14.25;;;;;;;20.62;71.80;96374.59;10371593;28;20409;-30
2023/06/30 11:36:17;;;;;;;18.00;13.40;;;;;;;20.64;71.16;96370.31;10372834;28;20046;-31
2023/06/30 11:41:19;;;;;;;19.60;14.25;;;;;;;20.59;71.48;96361.94;10352614;28;20057;-32
2023/06/30 11:46:20;;;;;;;21.50;15.00;;;;;;;20.61;71.38;96369.53;10365519;28;20068;-30
2023/06/30 11:51:21;;;;;;;21.50;14.48;;;;;;;20.57;71.63;96366.19;10340922;28;20040;-30
2023/06/30 11:56:21;;;;;;;19.38;14.30;;;;;;;20.56;72.58;96358.59;10347154;28;20036;-31
2023/06/30 12:01:21;;;;;;;19.43;14.67;;;;;;;20.52;72.43;96359.47;10356971;28;20490;-30
2023/06/30 12:06:25;;;;;;;18.57;13.87;;;;;;;20.53;72.79;96356.91;10340270;28;20556;-31
2023/06/30 12:11:29;;;;;;;20.83;13.98;;;;;;;20.54;72.75;96350.16;10348147;28;20352;-31
2023/06/30 12:16:42;;;;;;;20.25;14.80;;;;;;;20.45;72.02;96338.38;10340038;28;20113;-30
2023/06/30 12:21:55;;;;;;;21.98;15.15;;;;;;;20.55;72.68;96350.09;10303837;28;20138;-30
2023/06/30 12:26:56;;;;;;;18.58;14.18;;;;;;;20.51;71.80;96340.84;10304657;28;20097;-31
2023/06/30 12:31:56;;;;;;;18.37;13.77;;;;;;;20.60;71.33;96330.53;10319633;28;20566;-31
2023/06/30 12:36:57;;;;;;;19.20;15.00;;;;;;;20.72;70.94;96337.97;10308691;28;20034;-30
2023/06/30 12:41:57;;;;;;;21.15;16.60;;;;;;;20.71;71.47;96346.47;10312197;28;20030;-30
2023/06/30 12:47:01;;;;;;;24.15;16.52;;;;;;;20.53;71.17;96339.13;10305489;28;20037;-31
2023/06/30 12:52:02;;;;;;;21.75;15.85;;;;;;;20.55;71.02;96345.00;10301845;28;20113;-30
2023/06/30 12:57:03;;;;;;;22.02;16.13;;;;;;;20.54;72.18;96353.50;10317899;28;20030;-30
2023/06/30 13:02:05;;;;;;;19.63;14.60;;;;;;;20.55;73.24;96357.72;10290003;28;20507;-30
2023/06/30 13:07:05;;;;;;;21.88;16.17;;;;;;;20.32;72.55;96363.13;10297674;28;20121;-31
2023/06/30 13:12:09;;;;;;;21.95;16.48;;;;;;;20.23;72.66;96350.53;10305638;28;20122;-30
2023/06/30 13:17:09;;;;;;;20.02;16.02;;;;;;;20.26;72.39;96361.53;10317658;28;20426;-30
2023/06/30 13:22:12;;;;;;;24.97;17.97;;;;;;;20.22;73.27;96369.22;10301111;28;20031;-30
2023/06/30 13:27:12;;;;;;;23.20;17.42;;;;;;;20.15;74.48;96359.97;10312871;28;20368;-31
2023/06/30 13:32:12;;;;;;;24.60;18.33;;;;;;;20.03;74.86;96362.63;10310478;28;20049;-31
2023/06/30 13:37:13;;;;;;;27.07;18.50;;;;;;;20.10;75.71;96361.75;10311455;28;20031;-31
2023/06/30 13:42:14;;;;;;;22.50;17.13;;;;;;;20.19;77.05;96359.09;10305061;28;20271;-30
2023/06/30 13:47:14;;;;;;;21.55;16.52;;;;;;;20.20;77.02;96355.69;10298889;28;20030;-30
2023/06/30 13:52:14;;;;;;;21.90;17.03;;;;;;;20.28;77.61;96358.97;10307927;28;20026;-31
2023/06/30 13:57:15;;;;;;;22.33;17.37;;;;;;;20.24;77.48;96353.09;10287252;28;20169;-30
2023/06/30 14:02:16;;;;;;;24.27;17.25;;;;;;;20.31;77.19;96348.75;10314629;28;20293;-30
2023/06/30 14:07:16;;;;;;;24.63;17.50;;;;;;;20.28;77.23;96348.81;10311704;28;20510;-31
2023/06/30 14:12:19;;;;;;;22.60;16.67;;;;;;;20.27;77.21;96345.41;10314679;28;20043;-30
2023/06/30 14:17:19;;;;;;;22.10;16.80;;;;;;;20.30;75.76;96331.81;10310453;28;20031;-30
2023/06/30 14:22:20;;;;;;;24.03;17.50;;;;;;;20.33;76.18;96327.53;10325004;28;20034;-31
2023/06/30 14:27:20;;;;;;;21.63;16.50;;;;;;;20.36;76.65;96327.47;10312696;28;20411;-30
2023/06/30 14:32:20;;;;;;;21.27;16.60;;;;;;;20.45;77.31;96323.13;10295421;28;20300;-31
2023/06/30 14:37:21;;;;;;;24.83;18.35;;;;;;;20.45;77.56;96318.03;10299801;28;20066;-30
2023/06/30 14:42:21;;;;;;;22.97;16.60;;;;;;;20.50;77.50;96313.75;10305765;28;20026;-31
2023/06/30 14:47:21;;;;;;;20.25;15.98;;;;;;;20.48;76.49;96315.44;10321593;28;20478;-30
2023/06/30 14:52:22;;;;;;;19.40;15.07;;;;;;;20.43;75.44;96322.31;10321816;28;20031;-31
2023/06/30 14:57:23;;;;;;;19.92;15.35;;;;;;;20.38;75.33;96316.44;10302742;28;20033;-30
2023/06/30 15:02:23;;;;;;;21.50;16.60;;;;;;;20.42;74.94;96321.50;10302202;28;20085;-30
2023/06/30 15:07:25;;;;;;;23.23;16.93;;;;;;;20.45;74.28;96315.50;10310263;28;20035;-30
2023/06/30 15:12:25;;;;;;;21.45;15.93;;;;;;;20.46;73.70;96312.09;10308272;28;20034;-30
2023/06/30 15:17:25;;;;;;;25.10;18.30;;;;;;;20.45;72.93;96304.50;10317576;28;20510;-30
2023/06/30 15:22:29;;;;;;;25.60;18.20;;;;;;;20.44;72.04;96305.34;10325592;28;20293;-30
2023/06/30 15:27:29;;;;;;;23.02;17.33;;;;;;;20.45;73.97;96305.31;10303141;28;20026;-31
2023/06/30 15:32:29;;;;;;;26.93;19.10;;;;;;;20.44;72.17;96290.94;10327022;28;20041;-30
2023/06/30 15:37:30;;;;;;;29.70;18.77;;;;;;;20.51;73.19;96289.97;10300808;28;20285;-30
2023/06/30 15:42:31;;;;;;;25.83;19.93;;;;;;;20.45;70.51;96274.81;10329976;28;20113;-30
2023/06/30 15:47:32;;;;;;;25.17;19.25;;;;;;;20.52;70.06;96284.03;10297038;28;20430;-30
2023/06/30 15:52:32;;;;;;;27.05;19.02;;;;;;;20.52;69.83;96284.03;10300565;28;20035;-30
2023/06/30 15:57:33;;;;;;;27.97;18.93;;;;;;;20.53;70.64;96280.63;10295406;28;20031;-31
2023/06/30 16:02:35;;;;;;;21.92;17.00;;;;;;;20.51;70.05;96282.34;10308582;28;20093;-31
2023/06/30 16:07:35;;;;;;;22.30;17.02;;;;;;;20.46;69.36;96278.22;10307883;28;20046;-31
2023/06/30 16:12:35;;;;;;;22.00;16.25;;;;;;;20.42;69.18;96277.41;10308131;28;20034;-30
2023/06/30 16:17:36;;;;;;;21.37;16.10;;;;;;;20.40;69.76;96289.28;10321175;28;20034;-30
2023/06/30 16:22:36;;;;;;;20.98;16.73;;;;;;;20.36;70.11;96291.88;10317517;28;20602;-30
2023/06/30 16:27:37;;;;;;;15.73;12.53;;;;;;;20.14;71.08;96315.94;10316381;28;20420;-31
2023/06/30 16:32:37;;;;;;;12.97;8.23;;;;;;;19.81;72.58;96325.63;10309934;28;20195;-30
2023/06/30 16:37:37;;;;;;;10.63;7.27;;;;;;;19.80;72.92;96329.88;10333823;28;20301;-30
2023/06/30 16:42:41;;;;;;;10.70;7.70;;;;;;;19.93;73.57;96340.75;10337689;28;20046;-31
2023/06/30 16:47:43;;;;;;;11.02;6.97;;;;;;;19.92;74.43;96349.22;10336611;28;20080;-30
2023/06/30 16:52:44;;;;;;;11.80;8.00;;;;;;;19.79;75.79;96355.28;10338575;28;20133;-30
2023/06/30 16:57:44;;;;;;;11.52;7.60;;;;;;;19.78;76.33;96363.78;10341902;28;20038;-31
2023/06/30 17:02:47;;;;;;;10.80;6.25;;;;;;;19.85;76.87;96370.47;10324104;28;20081;-30
2023/06/30 17:07:47;;;;;;;9.27;6.18;;;;;;;19.84;76.75;96373.88;10300793;28;20074;-31
2023/06/30 17:12:50;;;;;;;7.73;5.37;;;;;;;19.85;76.31;96378.09;10337311;28;20113;-31
2023/06/30 17:17:50;;;;;;;6.32;4.13;;;;;;;19.82;76.24;96383.19;10338775;28;20117;-32
2023/06/30 17:22:50;;;;;;;10.43;5.10;;;;;;;19.76;76.00;96380.72;10336439;28;20030;-31
2023/06/30 17:27:51;;;;;;;7.20;3.78;;;;;;;19.74;75.91;96385.81;10334142;28;20034;-31
2023/06/30 17:32:51;;;;;;;3.37;2.87;;;;;;;19.71;75.78;96395.16;10310860;28;20027;-31
2023/06/30 17:37:52;;;;;;;5.17;3.30;;;;;;;19.69;75.54;96396.88;10307412;28;20494;-31
2023/06/30 17:42:52;;;;;;;4.10;2.35;;;;;;;19.65;75.28;96407.91;10311372;28;20034;-30
2023/06/30 17:47:52;;;;;;;2.40;2.20;;;;;;;19.55;75.14;96419.88;10295246;28;20118;-31
2023/06/30 17:52:53;;;;;;;10.50;2.60;;;;;;;19.48;75.15;96423.31;10312090;28;20508;-30
2023/06/30 17:57:53;;;;;;;3.70;1.77;;;;;;;19.50;74.97;96419.06;10303537;28;20630;-31
2023/06/30 18:02:53;;;;;;;2.73;2.27;;;;;;;19.45;74.86;96409.81;10307730;28;20049;-31
2023/06/30 18:07:54;;;;;;;4.03;2.37;;;;;;;19.33;74.45;96397.22;10310461;28;20117;-30
2023/06/30 18:12:58;;;;;;;5.60;2.80;;;;;;;19.26;74.46;96403.22;10309877;28;20466;-30
2023/06/30 18:17:58;;;;;;;3.28;1.92;;;;;;;19.31;74.57;96394.69;10333417;28;20511;-30
2023/06/30 18:22:59;;;;;;;3.78;2.00;;;;;;;19.31;74.24;96404.00;10297529;28;20035;-30
2023/06/30 18:27:59;;;;;;;2.63;2.00;;;;;;;19.23;74.15;96400.69;10288974;28;20502;-31
2023/06/30 18:33:00;;;;;;;2.90;1.87;;;;;;;19.26;74.12;96393.06;10324424;28;20506;-31
2023/06/30 18:38:01;;;;;;;3.92;1.88;;;;;;;19.37;73.10;96399.72;10315083;28;20045;-30
2023/06/30 18:43:01;;;;;;;3.40;2.10;;;;;;;19.23;73.73;96401.53;10315761;28;20038;-31
2023/06/30 18:48:01;;;;;;;4.93;1.97;;;;;;;19.22;73.94;96404.06;10313122;28;20113;-31
2023/06/30 18:53:04;;;;;;;3.58;2.33;;;;;;;19.20;73.88;96400.72;10317756;28;20033;-31
2023/06/30 18:58:04;;;;;;;2.40;1.92;;;;;;;19.25;73.81;96399.00;10314135;28;20104;-30
2023/06/30 19:03:05;;;;;;;2.47;1.93;;;;;;;19.35;73.14;96400.59;10315109;28;20034;-30
2023/06/30 19:08:05;;;;;;;4.57;2.20;;;;;;;19.30;73.49;96402.31;10321193;28;20050;-31
2023/06/30 19:13:05;;;;;;;2.03;1.70;;;;;;;19.29;72.81;96405.72;10306449;28;20035;-30
2023/06/30 19:18:06;;;;;;;3.27;2.20;;;;;;;19.20;72.83;96414.25;10312655;28;20039;-30
2023/06/30 19:23:06;;;;;;;3.22;2.17;;;;;;;19.20;72.97;96411.72;10306736;28;20034;-30
2023/06/30 19:28:07;;;;;;;6.38;2.17;;;;;;;19.19;72.78;96416.78;10297333;28;20285;-30
2023/06/30 19:33:07;;;;;;;5.23;1.80;;;;;;;19.20;72.68;96421.00;10297916;28;20042;-30
2023/06/30 19:38:08;;;;;;;3.50;2.22;;;;;;;19.09;72.88;96417.69;10305288;28;20109;-30
2023/06/30 19:43:09;;;;;;;2.38;1.98;;;;;;;19.08;72.81;96426.97;10323253;28;20050;-30
2023/06/30 19:48:10;;;;;;;4.40;2.20;;;;;;;19.08;73.45;96421.09;10330481;28;20057;-31
2023/06/30 19:53:10;;;;;;;2.93;2.00;;;;;;;19.10;72.91;96435.41;10319307;28;20056;-30
2023/06/30 19:58:11;;;;;;;3.47;2.27;;;;;;;18.97;73.41;96432.97;10309414;28;20105;-30
2023/06/30 20:03:11;;;;;;;3.08;2.00;;;;;;;18.96;72.96;96441.44;10314871;28;20289;-30
2023/06/30 20:08:11;;;;;;;3.20;1.90;;;;;;;19.03;72.56;96438.03;10329015;28;20056;-30
2023/06/30 20:13:12;;;;;;;2.37;1.63;;;;;;;18.94;72.29;96440.63;10331183;28;20502;-30
2023/06/30 20:18:12;;;;;;;4.30;1.83;;;;;;;18.86;72.66;96440.69;10335702;28;20293;-30
2023/06/30 20:23:12;;;;;;;3.72;1.90;;;;;;;18.84;72.45;96437.28;10318057;28;20109;-30
2023/06/30 20:28:13;;;;;;;3.27;1.87;;;;;;;18.87;72.10;96438.97;10315229;28;20049;-32
2023/06/30 20:33:14;;;;;;;4.53;2.05;;;;;;;18.83;71.94;96439.84;10311950;28;20290;-30
2023/06/30 20:38:17;;;;;;;4.85;2.28;;;;;;;18.64;72.65;96425.56;10304901;28;20039;-31
2023/06/30 20:43:18;;;;;;;5.13;2.63;;;;;;;18.65;72.09;96434.84;10313520;28;20034;-30
2023/06/30 20:48:18;;;;;;;2.20;1.83;;;;;;;18.40;72.46;96439.22;10308136;28;20042;-29
2023/06/30 20:53:18;;;;;;;2.53;2.00;;;;;;;18.34;72.47;96438.41;10320713;28;20033;-29
2023/06/30 20:58:19;;;;;;;2.93;2.00;;;;;;;18.25;72.49;96435.88;10300713;28;20031;-30
2023/06/30 21:03:19;;;;;;;3.20;2.28;;;;;;;18.38;72.26;96427.38;10303859;28;20542;-30
2023/06/30 21:08:20;;;;;;;2.47;1.98;;;;;;;18.42;71.93;96436.69;10327038;28;20052;-30
2023/06/30 21:13:20;;;;;;;4.40;2.70;;;;;;;18.48;71.40;96434.94;10313246;28;20383;-30
2023/06/30 21:18:20;;;;;;;7.17;2.20;;;;;;;18.53;70.98;96432.41;10345473;28;20042;-31
2023/06/30 21:23:21;;;;;;;3.27;2.37;;;;;;;18.46;71.10;96438.34;10311764;28;20038;-31
2023/06/30 21:28:22;;;;;;;7.18;2.15;;;;;;;18.42;72.12;96436.69;10311946;28;20506;-30
2023/06/30 21:33:22;;;;;;;2.50;2.30;;;;;;;18.46;71.25;96448.47;10321586;28;20049;-30
2023/06/30 21:38:23;;;;;;;3.63;2.53;;;;;;;18.47;71.11;96434.94;10301648;28;20089;-30
2023/06/30 21:43:23;;;;;;;2.47;2.27;;;;;;;18.38;70.90;96432.44;10304843;28;20053;-30
2023/06/30 21:48:24;;;;;;;2.80;2.27;;;;;;;18.43;70.85;96428.22;10304203;28;20093;-31
2023/06/30 21:53:24;;;;;;;6.57;2.78;;;;;;;18.37;70.75;96439.22;10304670;28;20110;-31
2023/06/30 21:58:24;;;;;;;3.50;2.00;;;;;;;18.32;70.85;96440.09;10311987;28;20030;-30
2023/06/30 22:03:25;;;;;;;3.50;2.13;;;;;;;18.31;70.70;96430.78;10303722;28;20454;-30
2023/06/30 22:08:25;;;;;;;3.08;2.55;;;;;;;18.30;70.93;96436.72;10311787;28;20498;-30
2023/06/30 22:13:26;;;;;;;3.15;2.08;;;;;;;18.24;70.98;96434.19;10323159;28;20483;-30
2023/06/30 22:18:26;;;;;;;5.23;2.37;;;;;;;18.27;71.01;96431.63;10314776;28;20022;-30
2023/06/30 22:23:26;;;;;;;4.73;2.43;;;;;;;18.25;71.12;96430.81;10295347;28;20038;-30
2023/06/30 22:28:27;;;;;;;3.53;2.27;;;;;;;18.22;71.21;96429.13;10310998;28;20045;-30
2023/06/30 22:33:27;;;;;;;6.57;2.43;;;;;;;18.23;71.10;96424.88;10321241;28;20050;-30
2023/06/30 22:38:28;;;;;;;5.78;2.28;;;;;;;18.23;71.26;96425.72;10301539;28;20057;-30
2023/06/30 22:43:28;;;;;;;2.65;2.25;;;;;;;18.34;70.83;96425.72;10320942;28;20027;-31
2023/06/30 22:48:29;;;;;;;2.80;2.07;;;;;;;18.23;71.08;96425.72;10299391;28;20038;-31
2023/06/30 22:53:29;;;;;;;3.23;2.33;;;;;;;18.23;70.99;96415.59;10307298;28;20166;-30
2023/06/30 22:58:29;;;;;;;8.90;2.07;;;;;;;18.28;70.91;96418.09;10306027;28;20450;-30